首页
METAR-TAF:

METAR-TAF

机场 :

Middleton Field

Evergreen, 阿拉巴马州, 美国

纬度: 31-25-08N, 经度: 087-02-53W, 海拔: 78米

当前天气观测

该预报发布于50分钟前的08:53 UTC
风速6节,风向南转西南
温度 23°C
湿度 89%
气压 1017 hPa
能見度: 11.3公里
多云层高于2800英尺
阴天层高于4100英尺

METAR: KGZH 290853Z AUTO 21006KT 7SM BKN028 OVC041 23/21 A3002 RMK AO2 SLP162 T02330206 53008

时间: 04:43 (09:43 UTC)


TAF: 丢失

超过4000个机场的气象观测和天气预报(METAR&TAF报告)。

可查询的气象台以黄色和红色小点在地图上表示。

将鼠标移到小点上方,可查看气象台名称。

然后点击查看天气观测和预报。

如需切换地图:点击带黑十字的绿色按钮放大地图;点击带横线的绿色按钮缩小地图;或者点击绿色箭头查看邻近地区的地图。


METAR-TAF: